createdAt,value
2023-01-25T00:01:54.752Z,8.10
2023-01-25T00:04:23.728Z,8.10
2023-01-25T00:06:52.075Z,8.00
2023-01-25T00:09:20.573Z,7.90
2023-01-25T00:11:50.252Z,8.00
2023-01-25T00:14:18.460Z,8.00
2023-01-25T00:16:46.913Z,8.00
2023-01-25T00:19:14.946Z,8.10
2023-01-25T00:21:43.222Z,8.10
2023-01-25T00:24:14.858Z,8.10
2023-01-25T00:26:46.682Z,8.10
2023-01-25T00:29:16.592Z,8.10
2023-01-25T00:31:59.161Z,8.10
2023-01-25T00:34:44.625Z,8.20
2023-01-25T00:37:29.279Z,8.20
2023-01-25T00:39:58.584Z,8.10
2023-01-25T00:42:37.343Z,8.10
2023-01-25T00:45:09.130Z,8.10
2023-01-25T00:47:37.532Z,8.10
2023-01-25T00:50:07.099Z,8.10
2023-01-25T00:52:35.255Z,8.10
2023-01-25T00:55:04.025Z,8.00
2023-01-25T00:57:33.512Z,8.00
2023-01-25T01:00:01.529Z,7.90
2023-01-25T01:02:32.028Z,7.90
2023-01-25T01:05:00.953Z,7.80
2023-01-25T01:07:28.976Z,7.80
2023-01-25T01:09:57.115Z,7.80
2023-01-25T01:12:25.886Z,7.80
2023-01-25T01:14:54.063Z,7.80
2023-01-25T01:17:22.142Z,7.80
2023-01-25T01:19:51.755Z,7.80
2023-01-25T01:22:19.674Z,7.80
2023-01-25T01:24:49.733Z,7.80
2023-01-25T01:27:17.841Z,7.80
2023-01-25T01:29:46.176Z,7.80
2023-01-25T01:32:14.424Z,7.80
2023-01-25T01:34:42.697Z,7.80
2023-01-25T01:37:12.285Z,7.80
2023-01-25T01:39:40.567Z,7.80
2023-01-25T01:42:08.546Z,7.80
2023-01-25T01:44:46.364Z,7.80
2023-01-25T01:47:18.821Z,7.80
2023-01-25T01:49:53.528Z,7.80
2023-01-25T01:52:27.735Z,7.90
2023-01-25T01:55:00.410Z,7.90
2023-01-25T01:57:32.816Z,7.80
2023-01-25T02:00:06.177Z,7.80
2023-01-25T02:02:43.525Z,7.70
2023-01-25T02:05:17.865Z,7.70
2023-01-25T02:07:49.377Z,7.80
2023-01-25T02:10:22.481Z,7.80
2023-01-25T02:12:53.465Z,7.80
2023-01-25T02:15:21.576Z,7.80
2023-01-25T02:17:50.570Z,7.90
2023-01-25T02:20:26.479Z,7.90
2023-01-25T02:23:02.081Z,7.90
2023-01-25T02:25:31.871Z,7.90
2023-01-25T02:28:07.649Z,7.90
2023-01-25T02:30:35.909Z,7.90
2023-01-25T02:33:03.945Z,7.80
2023-01-25T02:35:41.263Z,7.90
2023-01-25T02:38:12.361Z,7.90
2023-01-25T02:40:47.904Z,7.90
2023-01-25T02:43:17.327Z,7.90
2023-01-25T02:45:49.877Z,7.90
2023-01-25T02:48:17.943Z,7.90
2023-01-25T02:50:45.783Z,7.90
2023-01-25T02:53:13.723Z,7.90
2023-01-25T02:55:43.151Z,7.80
2023-01-25T02:58:11.170Z,7.80
2023-01-25T03:00:40.933Z,7.80
2023-01-25T03:03:08.847Z,7.80
2023-01-25T03:05:36.687Z,7.80
2023-01-25T03:08:04.921Z,7.80
2023-01-25T03:10:33.070Z,7.80
2023-01-25T03:13:04.968Z,7.80
2023-01-25T03:15:32.937Z,7.80
2023-01-25T03:18:03.453Z,7.90
2023-01-25T03:20:32.116Z,7.90
2023-01-25T03:23:00.120Z,8.10
2023-01-25T03:25:28.595Z,8.10
2023-01-25T03:28:04.387Z,8.10
2023-01-25T03:30:32.631Z,8.20
2023-01-25T03:33:00.507Z,8.20
2023-01-25T03:35:28.863Z,8.30
2023-01-25T03:37:57.066Z,8.30
2023-01-25T03:40:25.029Z,8.30
2023-01-25T03:42:54.048Z,8.30
2023-01-25T03:45:23.542Z,8.30
2023-01-25T03:47:51.571Z,8.30
2023-01-25T03:50:20.245Z,8.30
2023-01-25T03:53:20.206Z,8.40
2023-01-25T03:55:49.699Z,8.40
2023-01-25T03:58:19.282Z,8.40
2023-01-25T04:00:48.916Z,8.40
2023-01-25T04:03:18.099Z,8.50
2023-01-25T04:05:46.510Z,8.50
2023-01-25T04:08:14.922Z,8.60
2023-01-25T04:10:42.899Z,8.60
2023-01-25T04:13:11.042Z,8.60
2023-01-25T04:15:39.026Z,8.60
2023-01-25T04:18:17.158Z,8.60
2023-01-25T04:20:45.184Z,8.70
2023-01-25T04:23:13.876Z,8.70
2023-01-25T04:25:43.863Z,8.60
2023-01-25T04:28:15.904Z,8.70
2023-01-25T04:30:43.874Z,8.70
2023-01-25T04:33:12.196Z,8.70
2023-01-25T04:35:42.427Z,8.70
2023-01-25T04:38:11.203Z,8.70
2023-01-25T04:40:43.530Z,8.70
2023-01-25T04:43:14.295Z,8.60
2023-01-25T04:45:43.476Z,8.60
2023-01-25T04:48:19.424Z,8.60
2023-01-25T04:50:54.252Z,8.60
2023-01-25T04:53:23.843Z,8.60
2023-01-25T04:55:52.916Z,8.60
2023-01-25T04:58:22.110Z,8.60
2023-01-25T05:00:52.945Z,8.60
2023-01-25T05:03:21.495Z,8.60
2023-01-25T05:05:50.217Z,8.60
2023-01-25T05:08:26.423Z,8.60
2023-01-25T05:10:57.623Z,8.60
2023-01-25T05:13:45.857Z,8.60
2023-01-25T05:16:19.472Z,8.70
2023-01-25T05:18:49.475Z,8.60
2023-01-25T05:21:45.094Z,8.60
2023-01-25T05:24:16.483Z,8.60
2023-01-25T05:27:03.315Z,8.60
2023-01-25T05:30:04.554Z,8.60
2023-01-25T05:32:58.846Z,8.60
2023-01-25T05:35:27.025Z,8.60
2023-01-25T05:38:00.195Z,8.60
2023-01-25T05:40:30.625Z,8.60
2023-01-25T05:43:01.395Z,8.60
2023-01-25T05:45:31.314Z,8.50
2023-01-25T05:47:59.951Z,8.50
2023-01-25T05:50:28.581Z,8.50
2023-01-25T05:53:06.725Z,8.40
2023-01-25T05:55:37.826Z,8.40
2023-01-25T05:58:10.551Z,8.40
2023-01-25T06:00:39.952Z,8.40
2023-01-25T06:03:08.344Z,8.30
2023-01-25T06:05:39.474Z,8.30
2023-01-25T06:08:07.594Z,8.20
2023-01-25T06:10:56.716Z,8.20
2023-01-25T06:13:30.122Z,8.20
2023-01-25T06:15:59.435Z,8.10
2023-01-25T06:18:50.158Z,8.10
2023-01-25T06:21:40.801Z,8.10
2023-01-25T06:24:09.650Z,8.10
2023-01-25T06:26:39.315Z,8.10
2023-01-25T06:29:09.048Z,8.00
2023-01-25T06:31:37.209Z,8.00
2023-01-25T06:34:06.765Z,8.00
2023-01-25T06:36:35.104Z,8.00
2023-01-25T06:39:03.665Z,8.10
2023-01-25T06:41:31.920Z,8.10
2023-01-25T06:44:01.525Z,8.10
2023-01-25T06:46:32.177Z,8.10
2023-01-25T06:49:00.300Z,8.20
2023-01-25T06:51:28.361Z,8.20
2023-01-25T06:53:56.388Z,8.20
2023-01-25T06:56:25.129Z,8.20
2023-01-25T06:58:53.046Z,8.30
2023-01-25T07:01:27.328Z,8.30
2023-01-25T07:03:57.040Z,8.30
2023-01-25T07:06:25.463Z,8.40
2023-01-25T07:08:53.583Z,8.50
2023-01-25T07:11:21.575Z,8.60
2023-01-25T07:13:49.774Z,8.70
2023-01-25T07:16:20.016Z,8.70
2023-01-25T07:18:49.879Z,8.80
2023-01-25T07:21:21.455Z,8.80
2023-01-25T07:23:50.510Z,8.90
2023-01-25T07:26:22.083Z,8.90
2023-01-25T07:28:50.582Z,8.90
2023-01-25T07:31:19.473Z,9.00
2023-01-25T07:33:51.173Z,9.00
2023-01-25T07:36:19.717Z,9.00
2023-01-25T07:38:47.843Z,9.10
2023-01-25T07:41:16.679Z,9.10
2023-01-25T07:43:44.659Z,9.10
2023-01-25T07:46:13.877Z,9.20
2023-01-25T07:48:46.127Z,9.20
2023-01-25T07:51:27.211Z,9.30
2023-01-25T07:53:56.729Z,9.30
2023-01-25T07:56:26.494Z,9.40
2023-01-25T07:58:55.661Z,9.40
2023-01-25T08:01:25.102Z,9.40
2023-01-25T08:03:53.344Z,9.50
2023-01-25T08:06:27.807Z,9.50
2023-01-25T08:08:55.981Z,9.50
2023-01-25T08:11:26.047Z,9.60
2023-01-25T08:13:54.908Z,9.60
2023-01-25T08:16:24.773Z,9.70
2023-01-25T08:18:54.469Z,9.70
2023-01-25T08:21:24.555Z,9.70
2023-01-25T08:23:54.069Z,9.80
2023-01-25T08:26:22.102Z,9.80
2023-01-25T08:28:50.149Z,10.00
2023-01-25T08:31:19.840Z,10.10
2023-01-25T08:33:48.465Z,10.20
2023-01-25T08:36:21.354Z,10.20
2023-01-25T08:38:53.272Z,10.30
2023-01-25T08:41:23.239Z,10.50
2023-01-25T08:43:53.772Z,10.60
2023-01-25T08:46:23.952Z,10.60
2023-01-25T08:48:55.329Z,10.70
2023-01-25T08:51:24.697Z,10.70
2023-01-25T08:53:52.577Z,10.70
2023-01-25T08:56:22.297Z,10.80
2023-01-25T08:58:52.624Z,10.90
2023-01-25T09:01:21.078Z,10.90
2023-01-25T09:03:50.611Z,10.90
2023-01-25T09:06:20.495Z,10.90
2023-01-25T09:08:49.181Z,10.90
2023-01-25T09:11:19.019Z,10.90
2023-01-25T09:13:49.297Z,10.90
2023-01-25T09:16:18.855Z,10.70
2023-01-25T09:18:50.516Z,10.60
2023-01-25T09:21:19.339Z,10.60
2023-01-25T09:24:04.577Z,10.50
2023-01-25T09:26:34.367Z,10.50
2023-01-25T09:29:03.833Z,10.50
2023-01-25T09:31:31.856Z,10.60
2023-01-25T09:34:13.300Z,10.70
2023-01-25T09:36:41.034Z,10.80
2023-01-25T09:39:12.468Z,10.90
2023-01-25T09:42:15.463Z,11.10
2023-01-25T09:45:06.297Z,11.20
2023-01-25T09:47:43.491Z,11.20
2023-01-25T09:50:34.050Z,11.30
2023-01-25T09:53:21.856Z,11.30
2023-01-25T09:55:54.327Z,11.30
2023-01-25T09:58:28.501Z,11.30
2023-01-25T10:01:17.791Z,11.20
2023-01-25T10:03:52.614Z,11.30
2023-01-25T10:06:24.016Z,11.30
2023-01-25T10:09:00.299Z,11.30
2023-01-25T10:11:30.879Z,11.40
2023-01-25T10:13:59.313Z,11.50
2023-01-25T10:16:57.222Z,11.50
2023-01-25T10:19:36.021Z,11.50
2023-01-25T10:22:11.912Z,11.60
2023-01-25T10:25:18.501Z,11.60
2023-01-25T10:27:54.952Z,11.70
2023-01-25T10:30:28.114Z,11.70
2023-01-25T10:33:00.904Z,11.80
2023-01-25T10:35:36.687Z,11.90
2023-01-25T10:38:10.302Z,11.90
2023-01-25T10:40:43.322Z,12.00
2023-01-25T10:43:18.336Z,12.00
2023-01-25T10:45:46.768Z,12.10
2023-01-25T10:48:19.683Z,11.90
2023-01-25T10:50:50.084Z,11.90
2023-01-25T10:53:31.213Z,12.00
2023-01-25T10:56:11.586Z,11.90
2023-01-25T10:58:40.914Z,12.00
2023-01-25T11:01:12.693Z,12.00
2023-01-25T11:03:44.980Z,12.00
2023-01-25T11:06:13.308Z,12.10
2023-01-25T11:08:43.388Z,12.20
2023-01-25T11:11:25.696Z,12.10
2023-01-25T11:13:57.603Z,12.10
2023-01-25T11:16:37.842Z,12.10
2023-01-25T11:19:26.879Z,12.20
2023-01-25T11:21:56.071Z,12.10
2023-01-25T11:24:27.671Z,12.10
2023-01-25T11:27:14.715Z,12.20
2023-01-25T11:29:42.580Z,12.20
2023-01-25T11:32:21.961Z,12.20
2023-01-25T11:34:52.396Z,12.20
2023-01-25T11:37:32.980Z,12.20
2023-01-25T11:40:13.462Z,12.30
2023-01-25T11:42:52.601Z,12.40
2023-01-25T11:46:01.941Z,12.60
2023-01-25T11:48:47.328Z,12.50
2023-01-25T11:51:25.219Z,12.40
2023-01-25T11:54:18.482Z,12.30
2023-01-25T11:56:58.537Z,12.40
2023-01-25T11:59:44.146Z,12.40
2023-01-25T12:02:50.706Z,12.50
2023-01-25T12:05:40.242Z,12.60
2023-01-25T12:08:23.263Z,12.60
2023-01-25T12:11:01.112Z,12.60
2023-01-25T12:13:41.421Z,12.50
2023-01-25T12:16:38.351Z,12.30
2023-01-25T12:19:34.915Z,12.50
2023-01-25T12:22:27.443Z,12.60
2023-01-25T12:25:03.667Z,12.70
2023-01-25T12:28:42.899Z,12.70
2023-01-25T12:31:20.194Z,12.80
2023-01-25T12:33:52.763Z,12.90
2023-01-25T12:36:27.503Z,13.00
2023-01-25T12:39:00.147Z,13.10
2023-01-25T12:41:36.417Z,13.10
2023-01-25T12:44:11.585Z,13.20
2023-01-25T12:46:44.488Z,13.10
2023-01-25T12:49:19.474Z,13.20
2023-01-25T12:51:48.820Z,13.30
2023-01-25T12:54:23.100Z,13.40
2023-01-25T12:57:02.593Z,13.40
2023-01-25T12:59:37.936Z,13.50
2023-01-25T13:02:23.028Z,13.60
2023-01-25T13:05:02.752Z,13.50
2023-01-25T13:07:37.126Z,13.30
2023-01-25T13:10:14.984Z,13.20
2023-01-25T13:12:54.459Z,12.90
2023-01-25T13:15:40.423Z,12.90
2023-01-25T13:18:37.339Z,13.10
2023-01-25T13:21:11.782Z,13.10
2023-01-25T13:23:46.195Z,13.20
2023-01-25T13:26:46.255Z,13.30
2023-01-25T13:29:53.739Z,13.30
2023-01-25T13:32:55.971Z,13.30
2023-01-25T13:35:42.241Z,13.30
2023-01-25T13:38:33.735Z,13.30
2023-01-25T13:41:14.793Z,13.20
2023-01-25T13:43:46.451Z,13.20
2023-01-25T13:46:19.885Z,13.30
2023-01-25T13:48:57.864Z,13.20
2023-01-25T13:51:29.611Z,13.20
2023-01-25T13:53:59.102Z,13.20
2023-01-25T13:56:30.099Z,13.20
2023-01-25T13:58:58.842Z,13.20
2023-01-25T14:01:29.703Z,13.30
2023-01-25T14:04:02.688Z,13.30
2023-01-25T14:06:33.434Z,13.40
2023-01-25T14:09:07.901Z,13.30
2023-01-25T14:11:44.184Z,13.10
2023-01-25T14:14:21.596Z,13.00
2023-01-25T14:17:03.060Z,13.00
2023-01-25T14:19:36.500Z,12.90
2023-01-25T14:22:29.151Z,12.90
2023-01-25T14:25:13.052Z,12.90
2023-01-25T14:27:46.921Z,12.80
2023-01-25T14:30:23.606Z,12.70
2023-01-25T14:32:52.138Z,12.70
2023-01-25T14:35:56.450Z,12.70
2023-01-25T14:38:30.132Z,12.60
2023-01-25T14:41:02.659Z,12.50
2023-01-25T14:43:31.942Z,12.50
2023-01-25T14:46:00.218Z,12.40
2023-01-25T14:48:41.576Z,12.40
2023-01-25T14:51:19.032Z,12.40
2023-01-25T14:53:50.227Z,12.40
2023-01-25T14:56:32.397Z,12.20
2023-01-25T14:59:01.493Z,12.20
2023-01-25T15:01:39.133Z,12.20
2023-01-25T15:04:12.782Z,12.20
2023-01-25T15:06:50.659Z,12.10
2023-01-25T15:09:37.401Z,12.10
2023-01-25T15:12:23.031Z,12.00
2023-01-25T15:14:52.834Z,11.90
2023-01-25T15:17:40.264Z,11.90
2023-01-25T15:20:28.199Z,11.80
2023-01-25T15:23:01.466Z,11.80
2023-01-25T15:25:29.906Z,11.80
2023-01-25T15:27:58.047Z,11.70
2023-01-25T15:30:26.528Z,11.70
2023-01-25T15:32:55.199Z,11.60
2023-01-25T15:35:23.833Z,11.60
2023-01-25T15:37:52.195Z,11.50
2023-01-25T15:40:22.061Z,11.50
2023-01-25T15:42:50.333Z,11.40
2023-01-25T15:45:18.803Z,11.40
2023-01-25T15:47:47.030Z,11.30
2023-01-25T15:50:18.982Z,11.30
2023-01-25T15:52:47.803Z,11.30
2023-01-25T15:55:16.493Z,11.20
2023-01-25T15:57:47.402Z,11.10
2023-01-25T16:00:18.330Z,11.00
2023-01-25T16:02:46.563Z,10.90
2023-01-25T16:05:14.742Z,10.90
2023-01-25T16:07:45.151Z,10.80
2023-01-25T16:10:22.478Z,10.80
2023-01-25T16:12:52.253Z,10.80
2023-01-25T16:15:20.707Z,10.70
2023-01-25T16:17:48.876Z,10.60
2023-01-25T16:20:22.189Z,10.60
2023-01-25T16:22:50.392Z,10.50
2023-01-25T16:25:18.584Z,10.50
2023-01-25T16:27:48.813Z,10.40
2023-01-25T16:30:24.146Z,10.40
2023-01-25T16:32:53.759Z,10.40
2023-01-25T16:35:22.087Z,10.40
2023-01-25T16:37:52.442Z,10.30
2023-01-25T16:40:24.547Z,10.30
2023-01-25T16:42:53.467Z,10.30
2023-01-25T16:45:24.528Z,10.30
2023-01-25T16:47:52.887Z,10.20
2023-01-25T16:50:23.421Z,10.20
2023-01-25T16:52:51.915Z,10.20
2023-01-25T16:55:20.333Z,10.20
2023-01-25T16:57:51.617Z,10.20
2023-01-25T17:00:22.213Z,10.10
2023-01-25T17:02:59.210Z,10.10
2023-01-25T17:05:33.904Z,10.10
2023-01-25T17:08:02.203Z,10.10
2023-01-25T17:10:33.364Z,10.10
2023-01-25T17:13:01.696Z,10.10
2023-01-25T17:15:31.604Z,10.00
2023-01-25T17:17:59.548Z,10.00
2023-01-25T17:20:27.550Z,10.00
2023-01-25T17:22:55.398Z,10.00
2023-01-25T17:25:23.493Z,9.90
2023-01-25T17:27:52.435Z,10.00
2023-01-25T17:30:20.663Z,10.00
2023-01-25T17:32:50.088Z,9.90
2023-01-25T17:35:18.609Z,9.90
2023-01-25T17:37:46.812Z,9.90
2023-01-25T17:40:14.982Z,9.80
2023-01-25T17:42:43.512Z,9.70
2023-01-25T17:45:12.307Z,9.70
2023-01-25T17:47:40.355Z,9.70
2023-01-25T17:50:11.424Z,9.70
2023-01-25T17:52:39.658Z,9.80
2023-01-25T17:55:08.601Z,9.80
2023-01-25T17:57:37.533Z,9.70
2023-01-25T18:00:06.724Z,9.70
2023-01-25T18:02:45.359Z,9.70
2023-01-25T18:05:15.991Z,9.70
2023-01-25T18:07:44.997Z,9.70
2023-01-25T18:10:14.082Z,9.70
2023-01-25T18:12:43.773Z,9.70
2023-01-25T18:15:13.167Z,9.70
2023-01-25T18:17:41.132Z,9.70
2023-01-25T18:20:10.899Z,9.70
2023-01-25T18:22:41.879Z,9.60
2023-01-25T18:25:30.871Z,9.60
2023-01-25T18:27:59.091Z,9.70
2023-01-25T18:30:43.390Z,9.60
2023-01-25T18:33:11.463Z,9.70
2023-01-25T18:35:39.572Z,9.70
2023-01-25T18:38:10.530Z,9.70
2023-01-25T18:40:40.409Z,9.70
2023-01-25T18:43:09.792Z,9.60
2023-01-25T18:45:38.030Z,9.70
2023-01-25T18:48:06.868Z,9.70
2023-01-25T18:50:34.750Z,9.60
2023-01-25T18:53:02.779Z,9.60
2023-01-25T18:55:32.288Z,9.60
2023-01-25T18:58:04.323Z,9.60
2023-01-25T19:00:33.012Z,9.50
2023-01-25T19:03:01.342Z,9.60
2023-01-25T19:05:30.217Z,9.60
2023-01-25T19:07:58.429Z,9.60
2023-01-25T19:10:26.642Z,9.60
2023-01-25T19:12:56.062Z,9.60
2023-01-25T19:15:24.482Z,9.60
2023-01-25T19:17:52.510Z,9.60
2023-01-25T19:20:20.673Z,9.50
2023-01-25T19:22:48.603Z,9.50
2023-01-25T19:25:16.712Z,9.50
2023-01-25T19:27:45.109Z,9.50
2023-01-25T19:30:24.047Z,9.50
2023-01-25T19:32:52.517Z,9.60
2023-01-25T19:35:30.067Z,9.50
2023-01-25T19:37:58.382Z,9.50
2023-01-25T19:40:26.676Z,9.40
2023-01-25T19:42:55.279Z,9.40
2023-01-25T19:45:24.730Z,9.50
2023-01-25T19:47:52.518Z,9.40
2023-01-25T19:50:20.482Z,9.40
2023-01-25T19:52:48.301Z,9.40
2023-01-25T19:55:16.277Z,9.40
2023-01-25T19:57:46.250Z,9.40
2023-01-25T20:00:15.510Z,9.40
2023-01-25T20:02:45.326Z,9.30
2023-01-25T20:05:13.193Z,9.30
2023-01-25T20:07:42.403Z,9.40
2023-01-25T20:10:12.536Z,9.40
2023-01-25T20:12:40.365Z,9.40
2023-01-25T20:15:10.029Z,9.30
2023-01-25T20:17:39.067Z,9.30
2023-01-25T20:20:10.827Z,9.30
2023-01-25T20:22:38.920Z,9.30
2023-01-25T20:25:08.462Z,9.30
2023-01-25T20:27:36.697Z,9.30
2023-01-25T20:30:04.924Z,9.30
2023-01-25T20:32:36.201Z,9.30
2023-01-25T20:35:06.275Z,9.30
2023-01-25T20:37:35.617Z,9.30
2023-01-25T20:40:04.431Z,9.30
2023-01-25T20:42:32.166Z,9.30
2023-01-25T20:45:00.025Z,9.30
2023-01-25T20:47:27.775Z,9.30
2023-01-25T20:49:55.542Z,9.30
2023-01-25T20:52:23.342Z,9.30
2023-01-25T20:54:54.142Z,9.30
2023-01-25T20:57:22.084Z,9.30
2023-01-25T20:59:49.892Z,9.30
2023-01-25T21:02:17.770Z,9.20
2023-01-25T21:04:45.451Z,9.20
2023-01-25T21:07:13.277Z,9.20
2023-01-25T21:09:42.898Z,9.20
2023-01-25T21:12:12.653Z,9.20
2023-01-25T21:14:43.717Z,9.20
2023-01-25T21:17:12.022Z,9.20
2023-01-25T21:19:39.931Z,9.20
2023-01-25T21:22:07.738Z,9.20
2023-01-25T21:24:35.730Z,9.20
2023-01-25T21:27:03.544Z,9.20
2023-01-25T21:29:32.618Z,9.20
2023-01-25T21:32:00.559Z,9.20
2023-01-25T21:34:28.207Z,9.20
2023-01-25T21:36:55.850Z,9.20
2023-01-25T21:39:25.110Z,9.20
2023-01-25T21:41:53.132Z,9.20
2023-01-25T21:44:39.326Z,9.20
2023-01-25T21:47:28.724Z,9.10
2023-01-25T21:50:14.535Z,9.10
2023-01-25T21:52:42.127Z,9.10
2023-01-25T21:55:10.709Z,9.10
2023-01-25T21:57:45.804Z,9.20
2023-01-25T22:00:16.162Z,9.10
2023-01-25T22:02:45.814Z,9.10
2023-01-25T22:05:13.658Z,9.10
2023-01-25T22:07:41.376Z,9.10
2023-01-25T22:10:10.693Z,9.10
2023-01-25T22:12:38.599Z,9.10
2023-01-25T22:15:07.424Z,9.10
2023-01-25T22:17:35.231Z,9.10
2023-01-25T22:20:05.063Z,9.10
2023-01-25T22:22:33.011Z,9.10
2023-01-25T22:25:00.645Z,9.10
2023-01-25T22:27:37.124Z,9.00
2023-01-25T22:30:05.097Z,9.00
2023-01-25T22:32:32.907Z,9.10
2023-01-25T22:35:00.976Z,9.10
2023-01-25T22:37:30.108Z,9.00
2023-01-25T22:39:58.749Z,9.00
2023-01-25T22:42:26.358Z,9.00
2023-01-25T22:44:54.085Z,9.00
2023-01-25T22:47:21.746Z,9.00
2023-01-25T22:49:49.513Z,9.00
2023-01-25T22:52:17.220Z,9.00
2023-01-25T22:54:46.558Z,9.00
2023-01-25T22:57:14.366Z,9.00
2023-01-25T22:59:42.083Z,9.00
2023-01-25T23:02:09.883Z,9.00
2023-01-25T23:04:37.891Z,9.00
2023-01-25T23:07:12.982Z,9.00
2023-01-25T23:09:41.471Z,9.00
2023-01-25T23:12:10.778Z,9.00
2023-01-25T23:14:47.481Z,9.00
2023-01-25T23:17:33.320Z,9.00
2023-01-25T23:20:00.931Z,9.00
2023-01-25T23:22:28.483Z,9.00
2023-01-25T23:24:56.505Z,9.00
2023-01-25T23:27:25.600Z,9.00
2023-01-25T23:29:53.277Z,9.00
2023-01-25T23:32:21.060Z,9.00
2023-01-25T23:34:53.349Z,9.00
2023-01-25T23:37:22.403Z,9.00
2023-01-25T23:39:52.764Z,9.00
2023-01-25T23:42:20.577Z,9.00
2023-01-25T23:44:50.113Z,9.00
2023-01-25T23:47:18.743Z,9.00
2023-01-25T23:49:46.849Z,9.00
2023-01-25T23:52:15.021Z,9.00
2023-01-25T23:54:43.059Z,9.00
2023-01-25T23:57:11.240Z,9.00
2023-01-25T23:59:39.400Z,9.00
